sensor_id;sensor_type;location;lat;lon;timestamp;temperature;humidity
71733;DHT22;65965;43.502;3.716;2022-12-10T00:02:20;7.80;90.90
71733;DHT22;65965;43.502;3.716;2022-12-10T00:04:46;7.80;91.00
71733;DHT22;65965;43.502;3.716;2022-12-10T00:07:12;7.70;91.30
71733;DHT22;65965;43.502;3.716;2022-12-10T00:09:38;7.60;91.50
71733;DHT22;65965;43.502;3.716;2022-12-10T00:12:04;7.50;91.70
71733;DHT22;65965;43.502;3.716;2022-12-10T00:14:30;7.50;92.10
71733;DHT22;65965;43.502;3.716;2022-12-10T00:16:56;7.40;92.10
71733;DHT22;65965;43.502;3.716;2022-12-10T00:19:21;7.30;92.40
71733;DHT22;65965;43.502;3.716;2022-12-10T00:21:47;7.20;92.50
71733;DHT22;65965;43.502;3.716;2022-12-10T00:24:13;7.10;92.80
71733;DHT22;65965;43.502;3.716;2022-12-10T00:26:39;7.00;93.00
71733;DHT22;65965;43.502;3.716;2022-12-10T00:29:07;7.00;93.20
71733;DHT22;65965;43.502;3.716;2022-12-10T00:31:35;7.00;93.30
71733;DHT22;65965;43.502;3.716;2022-12-10T00:34:05;6.90;93.50
71733;DHT22;65965;43.502;3.716;2022-12-10T00:36:37;6.90;93.60
71733;DHT22;65965;43.502;3.716;2022-12-10T00:39:04;6.90;93.80
71733;DHT22;65965;43.502;3.716;2022-12-10T00:41:30;6.80;93.80
71733;DHT22;65965;43.502;3.716;2022-12-10T00:43:56;6.70;93.80
71733;DHT22;65965;43.502;3.716;2022-12-10T00:46:22;6.70;93.90
71733;DHT22;65965;43.502;3.716;2022-12-10T00:48:48;6.60;93.90
71733;DHT22;65965;43.502;3.716;2022-12-10T00:51:17;6.50;93.90
71733;DHT22;65965;43.502;3.716;2022-12-10T00:53:44;6.50;94.10
71733;DHT22;65965;43.502;3.716;2022-12-10T00:56:12;6.50;94.10
71733;DHT22;65965;43.502;3.716;2022-12-10T00:58:38;6.40;94.10
71733;DHT22;65965;43.502;3.716;2022-12-10T01:01:26;6.30;94.20
71733;DHT22;65965;43.502;3.716;2022-12-10T01:03:54;6.20;94.30
71733;DHT22;65965;43.502;3.716;2022-12-10T01:06:26;6.20;94.40
71733;DHT22;65965;43.502;3.716;2022-12-10T01:08:52;6.20;94.50
71733;DHT22;65965;43.502;3.716;2022-12-10T01:11:21;6.20;94.60
71733;DHT22;65965;43.502;3.716;2022-12-10T01:13:48;6.20;94.70
71733;DHT22;65965;43.502;3.716;2022-12-10T01:16:16;6.10;94.70
71733;DHT22;65965;43.502;3.716;2022-12-10T01:18:42;6.20;94.90
71733;DHT22;65965;43.502;3.716;2022-12-10T01:21:11;6.10;94.80
71733;DHT22;65965;43.502;3.716;2022-12-10T01:23:38;6.20;94.90
71733;DHT22;65965;43.502;3.716;2022-12-10T01:26:09;6.00;94.90
71733;DHT22;65965;43.502;3.716;2022-12-10T01:28:37;6.10;95.00
71733;DHT22;65965;43.502;3.716;2022-12-10T01:31:06;6.10;95.10
71733;DHT22;65965;43.502;3.716;2022-12-10T01:33:33;6.10;95.10
71733;DHT22;65965;43.502;3.716;2022-12-10T01:36:04;6.10;95.20
71733;DHT22;65965;43.502;3.716;2022-12-10T01:38:31;6.20;95.20
71733;DHT22;65965;43.502;3.716;2022-12-10T01:40:58;6.20;95.20
71733;DHT22;65965;43.502;3.716;2022-12-10T01:43:24;6.30;95.20
71733;DHT22;65965;43.502;3.716;2022-12-10T01:45:49;6.30;95.20
71733;DHT22;65965;43.502;3.716;2022-12-10T01:48:15;6.40;95.30
71733;DHT22;65965;43.502;3.716;2022-12-10T01:50:41;6.40;95.30
71733;DHT22;65965;43.502;3.716;2022-12-10T01:53:07;6.40;95.20
71733;DHT22;65965;43.502;3.716;2022-12-10T01:55:50;6.50;95.20
71733;DHT22;65965;43.502;3.716;2022-12-10T01:58:18;6.50;95.10
71733;DHT22;65965;43.502;3.716;2022-12-10T02:11:50;6.80;94.70
71733;DHT22;65965;43.502;3.716;2022-12-10T02:14:27;6.90;94.50
71733;DHT22;65965;43.502;3.716;2022-12-10T02:17:07;6.90;94.10
71733;DHT22;65965;43.502;3.716;2022-12-10T02:22:11;6.70;93.50
71733;DHT22;65965;43.502;3.716;2022-12-10T02:24:38;6.60;93.50
71733;DHT22;65965;43.502;3.716;2022-12-10T02:27:13;6.50;93.50
71733;DHT22;65965;43.502;3.716;2022-12-10T02:29:41;6.50;93.70
71733;DHT22;65965;43.502;3.716;2022-12-10T02:32:19;6.50;93.70
71733;DHT22;65965;43.502;3.716;2022-12-10T02:34:51;6.40;93.80
71733;DHT22;65965;43.502;3.716;2022-12-10T02:37:30;6.40;93.90
71733;DHT22;65965;43.502;3.716;2022-12-10T02:40:01;6.40;93.80
71733;DHT22;65965;43.502;3.716;2022-12-10T02:42:30;6.40;93.90
71733;DHT22;65965;43.502;3.716;2022-12-10T02:44:57;6.50;93.90
71733;DHT22;65965;43.502;3.716;2022-12-10T02:47:24;6.50;94.00
71733;DHT22;65965;43.502;3.716;2022-12-10T02:49:52;6.50;94.00
71733;DHT22;65965;43.502;3.716;2022-12-10T02:52:20;6.50;93.80
71733;DHT22;65965;43.502;3.716;2022-12-10T02:54:49;6.50;93.70
71733;DHT22;65965;43.502;3.716;2022-12-10T02:59:54;6.50;93.80
71733;DHT22;65965;43.502;3.716;2022-12-10T03:07:58;6.60;93.30
71733;DHT22;65965;43.502;3.716;2022-12-10T03:13:12;6.60;93.30
71733;DHT22;65965;43.502;3.716;2022-12-10T03:15:41;6.70;93.30
71733;DHT22;65965;43.502;3.716;2022-12-10T03:18:09;6.70;93.10
71733;DHT22;65965;43.502;3.716;2022-12-10T03:20:39;6.70;93.10
71733;DHT22;65965;43.502;3.716;2022-12-10T03:23:08;6.70;93.00
71733;DHT22;65965;43.502;3.716;2022-12-10T03:25:35;6.70;92.70
71733;DHT22;65965;43.502;3.716;2022-12-10T03:28:01;6.60;92.70
71733;DHT22;65965;43.502;3.716;2022-12-10T03:30:30;6.60;92.50
71733;DHT22;65965;43.502;3.716;2022-12-10T03:32:57;6.60;92.50
71733;DHT22;65965;43.502;3.716;2022-12-10T03:35:24;6.50;92.70
71733;DHT22;65965;43.502;3.716;2022-12-10T03:37:50;6.50;93.00
71733;DHT22;65965;43.502;3.716;2022-12-10T03:40:19;6.50;93.10
71733;DHT22;65965;43.502;3.716;2022-12-10T03:42:46;6.60;93.30
71733;DHT22;65965;43.502;3.716;2022-12-10T03:45:12;6.50;93.20
71733;DHT22;65965;43.502;3.716;2022-12-10T03:47:39;6.40;93.10
71733;DHT22;65965;43.502;3.716;2022-12-10T03:50:06;6.40;93.40
71733;DHT22;65965;43.502;3.716;2022-12-10T03:52:32;6.40;93.50
71733;DHT22;65965;43.502;3.716;2022-12-10T03:54:57;6.50;93.80
71733;DHT22;65965;43.502;3.716;2022-12-10T03:57:23;6.70;94.00
71733;DHT22;65965;43.502;3.716;2022-12-10T03:59:49;6.70;93.80
71733;DHT22;65965;43.502;3.716;2022-12-10T04:02:14;6.70;93.50
71733;DHT22;65965;43.502;3.716;2022-12-10T04:04:40;6.60;93.50
71733;DHT22;65965;43.502;3.716;2022-12-10T04:07:06;6.60;93.40
71733;DHT22;65965;43.502;3.716;2022-12-10T04:09:32;6.50;93.40
71733;DHT22;65965;43.502;3.716;2022-12-10T04:11:58;6.40;93.60
71733;DHT22;65965;43.502;3.716;2022-12-10T04:14:25;6.40;93.80
71733;DHT22;65965;43.502;3.716;2022-12-10T04:17:09;6.40;94.00
71733;DHT22;65965;43.502;3.716;2022-12-10T04:19:36;6.30;94.20
71733;DHT22;65965;43.502;3.716;2022-12-10T04:22:01;6.30;94.20
71733;DHT22;65965;43.502;3.716;2022-12-10T04:24:45;6.30;94.50
71733;DHT22;65965;43.502;3.716;2022-12-10T04:27:32;6.30;94.70
71733;DHT22;65965;43.502;3.716;2022-12-10T04:29:59;6.50;94.90
71733;DHT22;65965;43.502;3.716;2022-12-10T04:32:27;6.50;94.80
71733;DHT22;65965;43.502;3.716;2022-12-10T04:34:54;6.50;94.80
71733;DHT22;65965;43.502;3.716;2022-12-10T04:37:19;6.50;94.80
71733;DHT22;65965;43.502;3.716;2022-12-10T04:39:46;6.40;94.60
71733;DHT22;65965;43.502;3.716;2022-12-10T04:42:12;6.40;94.60
71733;DHT22;65965;43.502;3.716;2022-12-10T04:44:38;6.40;94.50
71733;DHT22;65965;43.502;3.716;2022-12-10T04:47:05;6.30;94.50
71733;DHT22;65965;43.502;3.716;2022-12-10T04:49:32;6.20;94.50
71733;DHT22;65965;43.502;3.716;2022-12-10T04:51:58;6.20;94.60
71733;DHT22;65965;43.502;3.716;2022-12-10T04:54:24;6.10;94.60
71733;DHT22;65965;43.502;3.716;2022-12-10T04:56:50;6.10;94.70
71733;DHT22;65965;43.502;3.716;2022-12-10T04:59:16;6.10;94.80
71733;DHT22;65965;43.502;3.716;2022-12-10T05:01:42;6.10;95.00
71733;DHT22;65965;43.502;3.716;2022-12-10T05:04:10;6.10;94.90
71733;DHT22;65965;43.502;3.716;2022-12-10T05:06:36;6.20;95.10
71733;DHT22;65965;43.502;3.716;2022-12-10T05:09:03;6.40;95.30
71733;DHT22;65965;43.502;3.716;2022-12-10T05:11:30;6.60;95.20
71733;DHT22;65965;43.502;3.716;2022-12-10T05:13:57;6.80;95.00
71733;DHT22;65965;43.502;3.716;2022-12-10T05:16:25;7.10;93.60
71733;DHT22;65965;43.502;3.716;2022-12-10T05:18:52;7.40;91.30
71733;DHT22;65965;43.502;3.716;2022-12-10T05:21:20;7.30;90.50
71733;DHT22;65965;43.502;3.716;2022-12-10T05:23:49;7.30;90.00
71733;DHT22;65965;43.502;3.716;2022-12-10T05:26:23;7.00;90.50
71733;DHT22;65965;43.502;3.716;2022-12-10T05:28:51;6.80;91.50
71733;DHT22;65965;43.502;3.716;2022-12-10T05:33:45;6.60;92.40
71733;DHT22;65965;43.502;3.716;2022-12-10T05:36:12;6.60;92.70
71733;DHT22;65965;43.502;3.716;2022-12-10T05:38:39;6.60;93.20
71733;DHT22;65965;43.502;3.716;2022-12-10T05:41:13;6.70;93.30
71733;DHT22;65965;43.502;3.716;2022-12-10T05:43:40;6.80;93.00
71733;DHT22;65965;43.502;3.716;2022-12-10T05:46:17;6.80;92.60
71733;DHT22;65965;43.502;3.716;2022-12-10T05:48:43;6.70;92.40
71733;DHT22;65965;43.502;3.716;2022-12-10T05:51:11;6.70;92.30
71733;DHT22;65965;43.502;3.716;2022-12-10T05:53:38;6.80;92.40
71733;DHT22;65965;43.502;3.716;2022-12-10T05:56:09;6.90;91.80
71733;DHT22;65965;43.502;3.716;2022-12-10T05:58:36;7.00;90.80
71733;DHT22;65965;43.502;3.716;2022-12-10T06:01:06;7.00;90.60
71733;DHT22;65965;43.502;3.716;2022-12-10T06:03:32;7.00;90.80
71733;DHT22;65965;43.502;3.716;2022-12-10T06:05:58;7.10;90.50
71733;DHT22;65965;43.502;3.716;2022-12-10T06:08:24;7.10;90.10
71733;DHT22;65965;43.502;3.716;2022-12-10T06:10:49;7.10;90.00
71733;DHT22;65965;43.502;3.716;2022-12-10T06:13:15;7.20;89.00
71733;DHT22;65965;43.502;3.716;2022-12-10T06:15:42;7.50;87.70
71733;DHT22;65965;43.502;3.716;2022-12-10T06:18:08;7.60;86.50
71733;DHT22;65965;43.502;3.716;2022-12-10T06:20:36;7.70;85.80
71733;DHT22;65965;43.502;3.716;2022-12-10T06:23:02;7.70;85.00
71733;DHT22;65965;43.502;3.716;2022-12-10T06:25:28;7.70;84.80
71733;DHT22;65965;43.502;3.716;2022-12-10T06:27:54;7.70;84.30
71733;DHT22;65965;43.502;3.716;2022-12-10T06:30:19;7.60;85.30
71733;DHT22;65965;43.502;3.716;2022-12-10T06:32:45;7.60;84.30
71733;DHT22;65965;43.502;3.716;2022-12-10T06:35:11;7.60;84.30
71733;DHT22;65965;43.502;3.716;2022-12-10T06:37:37;7.70;83.40
71733;DHT22;65965;43.502;3.716;2022-12-10T06:40:04;7.70;83.30
71733;DHT22;65965;43.502;3.716;2022-12-10T06:42:29;7.50;83.50
71733;DHT22;65965;43.502;3.716;2022-12-10T06:44:56;7.70;82.60
71733;DHT22;65965;43.502;3.716;2022-12-10T06:47:21;7.60;82.50
71733;DHT22;65965;43.502;3.716;2022-12-10T06:49:47;7.50;82.80
71733;DHT22;65965;43.502;3.716;2022-12-10T06:52:13;7.30;84.20
71733;DHT22;65965;43.502;3.716;2022-12-10T06:54:39;7.10;85.20
71733;DHT22;65965;43.502;3.716;2022-12-10T06:57:05;6.90;86.70
71733;DHT22;65965;43.502;3.716;2022-12-10T06:59:31;6.80;86.50
71733;DHT22;65965;43.502;3.716;2022-12-10T07:01:57;6.90;85.50
71733;DHT22;65965;43.502;3.716;2022-12-10T07:04:22;7.20;83.90
71733;DHT22;65965;43.502;3.716;2022-12-10T07:06:48;7.20;82.70
71733;DHT22;65965;43.502;3.716;2022-12-10T07:09:14;7.40;82.60
71733;DHT22;65965;43.502;3.716;2022-12-10T07:11:41;7.80;79.40
71733;DHT22;65965;43.502;3.716;2022-12-10T07:14:07;7.70;78.30
71733;DHT22;65965;43.502;3.716;2022-12-10T07:16:33;7.70;77.90
71733;DHT22;65965;43.502;3.716;2022-12-10T07:19:00;7.80;76.00
71733;DHT22;65965;43.502;3.716;2022-12-10T07:21:29;7.90;76.30
71733;DHT22;65965;43.502;3.716;2022-12-10T07:23:57;7.70;76.20
71733;DHT22;65965;43.502;3.716;2022-12-10T07:26:31;7.80;76.10
71733;DHT22;65965;43.502;3.716;2022-12-10T07:28:58;7.80;74.10
71733;DHT22;65965;43.502;3.716;2022-12-10T07:31:25;7.90;73.80
71733;DHT22;65965;43.502;3.716;2022-12-10T07:33:51;7.80;72.90
71733;DHT22;65965;43.502;3.716;2022-12-10T07:36:18;7.80;73.50
71733;DHT22;65965;43.502;3.716;2022-12-10T07:38:45;7.90;73.00
71733;DHT22;65965;43.502;3.716;2022-12-10T07:41:12;7.80;72.60
71733;DHT22;65965;43.502;3.716;2022-12-10T07:43:42;7.70;74.30
71733;DHT22;65965;43.502;3.716;2022-12-10T07:48:39;7.80;72.50
71733;DHT22;65965;43.502;3.716;2022-12-10T07:51:05;7.80;73.00
71733;DHT22;65965;43.502;3.716;2022-12-10T07:53:31;7.70;74.90
71733;DHT22;65965;43.502;3.716;2022-12-10T07:55:57;7.80;74.80
71733;DHT22;65965;43.502;3.716;2022-12-10T07:58:23;8.00;74.20
71733;DHT22;65965;43.502;3.716;2022-12-10T08:00:49;8.00;74.70
71733;DHT22;65965;43.502;3.716;2022-12-10T08:03:14;8.00;74.00
71733;DHT22;65965;43.502;3.716;2022-12-10T08:05:40;8.10;74.50
71733;DHT22;65965;43.502;3.716;2022-12-10T08:08:06;8.10;74.80
71733;DHT22;65965;43.502;3.716;2022-12-10T08:10:36;8.10;72.90
71733;DHT22;65965;43.502;3.716;2022-12-10T08:13:02;8.30;69.40
71733;DHT22;65965;43.502;3.716;2022-12-10T08:15:28;8.30;69.20
71733;DHT22;65965;43.502;3.716;2022-12-10T08:17:54;8.30;69.20
71733;DHT22;65965;43.502;3.716;2022-12-10T08:20:20;8.40;68.90
71733;DHT22;65965;43.502;3.716;2022-12-10T08:22:46;8.50;69.00
71733;DHT22;65965;43.502;3.716;2022-12-10T08:25:12;8.60;66.80
71733;DHT22;65965;43.502;3.716;2022-12-10T08:27:37;8.70;68.70
71733;DHT22;65965;43.502;3.716;2022-12-10T08:30:04;8.60;66.20
71733;DHT22;65965;43.502;3.716;2022-12-10T08:32:29;8.70;65.80
71733;DHT22;65965;43.502;3.716;2022-12-10T08:34:55;8.90;66.40
71733;DHT22;65965;43.502;3.716;2022-12-10T08:37:21;9.00;65.30
71733;DHT22;65965;43.502;3.716;2022-12-10T08:39:47;9.10;64.10
71733;DHT22;65965;43.502;3.716;2022-12-10T08:42:12;9.10;64.40
71733;DHT22;65965;43.502;3.716;2022-12-10T08:44:38;9.30;64.90
71733;DHT22;65965;43.502;3.716;2022-12-10T08:47:04;9.40;64.60
71733;DHT22;65965;43.502;3.716;2022-12-10T08:49:30;9.40;64.90
71733;DHT22;65965;43.502;3.716;2022-12-10T08:51:55;9.50;63.70
71733;DHT22;65965;43.502;3.716;2022-12-10T08:54:21;9.50;63.90
71733;DHT22;65965;43.502;3.716;2022-12-10T08:56:47;9.30;62.00
71733;DHT22;65965;43.502;3.716;2022-12-10T08:59:12;9.30;62.30
71733;DHT22;65965;43.502;3.716;2022-12-10T09:01:38;9.50;61.20
71733;DHT22;65965;43.502;3.716;2022-12-10T09:04:04;9.30;61.80
71733;DHT22;65965;43.502;3.716;2022-12-10T09:06:30;9.80;60.50
71733;DHT22;65965;43.502;3.716;2022-12-10T09:08:58;10.30;57.20
71733;DHT22;65965;43.502;3.716;2022-12-10T09:11:30;9.70;60.80
71733;DHT22;65965;43.502;3.716;2022-12-10T09:13:56;9.80;59.60
71733;DHT22;65965;43.502;3.716;2022-12-10T09:16:31;11.40;56.20
71733;DHT22;65965;43.502;3.716;2022-12-10T09:18:57;11.40;53.70
71733;DHT22;65965;43.502;3.716;2022-12-10T09:21:23;10.20;57.80
71733;DHT22;65965;43.502;3.716;2022-12-10T09:23:50;10.00;56.20
71733;DHT22;65965;43.502;3.716;2022-12-10T09:26:16;9.60;60.20
71733;DHT22;65965;43.502;3.716;2022-12-10T09:28:43;9.10;58.90
71733;DHT22;65965;43.502;3.716;2022-12-10T09:31:10;8.70;62.20
71733;DHT22;65965;43.502;3.716;2022-12-10T09:33:37;8.60;62.20
71733;DHT22;65965;43.502;3.716;2022-12-10T09:36:04;8.30;62.80
71733;DHT22;65965;43.502;3.716;2022-12-10T09:38:33;8.70;60.00
71733;DHT22;65965;43.502;3.716;2022-12-10T09:46:31;8.90;60.00
71733;DHT22;65965;43.502;3.716;2022-12-10T09:51:47;8.70;61.80
71733;DHT22;65965;43.502;3.716;2022-12-10T09:54:30;8.40;60.90
71733;DHT22;65965;43.502;3.716;2022-12-10T09:56:57;8.50;60.70
71733;DHT22;65965;43.502;3.716;2022-12-10T10:00:00;8.60;60.60
71733;DHT22;65965;43.502;3.716;2022-12-10T10:02:22;8.50;59.30
71733;DHT22;65965;43.502;3.716;2022-12-10T10:04:50;8.80;59.00
71733;DHT22;65965;43.502;3.716;2022-12-10T10:07:25;11.30;52.10
71733;DHT22;65965;43.502;3.716;2022-12-10T10:10:03;11.60;51.60
71733;DHT22;65965;43.502;3.716;2022-12-10T10:12:31;12.30;50.90
71733;DHT22;65965;43.502;3.716;2022-12-10T10:15:09;14.20;44.70
71733;DHT22;65965;43.502;3.716;2022-12-10T10:17:36;13.80;44.10
71733;DHT22;65965;43.502;3.716;2022-12-10T10:20:03;14.60;47.10
71733;DHT22;65965;43.502;3.716;2022-12-10T10:22:30;15.30;44.20
71733;DHT22;65965;43.502;3.716;2022-12-10T10:24:56;15.90;44.50
71733;DHT22;65965;43.502;3.716;2022-12-10T10:27:23;16.30;41.90
71733;DHT22;65965;43.502;3.716;2022-12-10T10:29:53;15.90;43.30
71733;DHT22;65965;43.502;3.716;2022-12-10T10:35:03;16.30;43.80
71733;DHT22;65965;43.502;3.716;2022-12-10T10:37:38;16.20;41.10
71733;DHT22;65965;43.502;3.716;2022-12-10T10:40:05;16.20;41.30
71733;DHT22;65965;43.502;3.716;2022-12-10T10:42:38;15.50;42.70
71733;DHT22;65965;43.502;3.716;2022-12-10T10:45:30;15.20;43.30
71733;DHT22;65965;43.502;3.716;2022-12-10T10:48:09;16.00;42.90
71733;DHT22;65965;43.502;3.716;2022-12-10T10:50:47;13.10;45.20
71733;DHT22;65965;43.502;3.716;2022-12-10T10:53:35;12.90;47.10
71733;DHT22;65965;43.502;3.716;2022-12-10T10:59:04;11.40;52.10
71733;DHT22;65965;43.502;3.716;2022-12-10T11:01:47;10.40;50.10
71733;DHT22;65965;43.502;3.716;2022-12-10T11:04:15;10.90;50.50
71733;DHT22;65965;43.502;3.716;2022-12-10T11:06:44;13.40;47.80
71733;DHT22;65965;43.502;3.716;2022-12-10T11:09:25;14.10;43.50
71733;DHT22;65965;43.502;3.716;2022-12-10T11:14:30;15.60;41.90
71733;DHT22;65965;43.502;3.716;2022-12-10T11:17:22;16.40;42.20
71733;DHT22;65965;43.502;3.716;2022-12-10T11:20:12;15.80;41.80
71733;DHT22;65965;43.502;3.716;2022-12-10T11:22:49;16.20;40.30
71733;DHT22;65965;43.502;3.716;2022-12-10T11:25:15;17.00;38.30
71733;DHT22;65965;43.502;3.716;2022-12-10T11:30:20;16.30;40.50
71733;DHT22;65965;43.502;3.716;2022-12-10T11:38:26;16.30;40.40
71733;DHT22;65965;43.502;3.716;2022-12-10T11:40:57;16.40;40.70
71733;DHT22;65965;43.502;3.716;2022-12-10T11:43:44;14.40;41.50
71733;DHT22;65965;43.502;3.716;2022-12-10T11:51:30;16.40;39.30
71733;DHT22;65965;43.502;3.716;2022-12-10T11:54:24;15.60;40.20
71733;DHT22;65965;43.502;3.716;2022-12-10T11:57:03;16.50;39.50
71733;DHT22;65965;43.502;3.716;2022-12-10T12:05:53;17.20;37.40
71733;DHT22;65965;43.502;3.716;2022-12-10T12:11:48;15.40;39.90
71733;DHT22;65965;43.502;3.716;2022-12-10T12:14:35;14.40;41.80
71733;DHT22;65965;43.502;3.716;2022-12-10T12:17:04;16.90;40.00
71733;DHT22;65965;43.502;3.716;2022-12-10T12:19:37;18.10;37.10
71733;DHT22;65965;43.502;3.716;2022-12-10T12:22:21;18.60;37.30
71733;DHT22;65965;43.502;3.716;2022-12-10T12:24:49;17.80;37.70
71733;DHT22;65965;43.502;3.716;2022-12-10T12:27:38;18.20;35.40
71733;DHT22;65965;43.502;3.716;2022-12-10T12:30:16;16.70;37.50
71733;DHT22;65965;43.502;3.716;2022-12-10T12:41:03;16.60;38.90
71733;DHT22;65965;43.502;3.716;2022-12-10T12:46:20;16.70;39.20
71733;DHT22;65965;43.502;3.716;2022-12-10T12:49:11;17.10;38.00
71733;DHT22;65965;43.502;3.716;2022-12-10T12:52:13;15.80;39.70
71733;DHT22;65965;43.502;3.716;2022-12-10T12:54:32;16.40;38.80
71733;DHT22;65965;43.502;3.716;2022-12-10T12:57:11;16.30;38.50
71733;DHT22;65965;43.502;3.716;2022-12-10T13:05:05;15.40;40.30
71733;DHT22;65965;43.502;3.716;2022-12-10T13:07:37;13.90;40.50
71733;DHT22;65965;43.502;3.716;2022-12-10T13:13:16;12.20;43.90
71733;DHT22;65965;43.502;3.716;2022-12-10T13:15:42;12.00;45.90
71733;DHT22;65965;43.502;3.716;2022-12-10T13:23:54;14.60;42.10
71733;DHT22;65965;43.502;3.716;2022-12-10T13:26:30;12.40;43.80
71733;DHT22;65965;43.502;3.716;2022-12-10T13:29:25;11.70;46.00
71733;DHT22;65965;43.502;3.716;2022-12-10T13:32:17;12.50;44.20
71733;DHT22;65965;43.502;3.716;2022-12-10T13:34:44;13.00;44.80
71733;DHT22;65965;43.502;3.716;2022-12-10T13:42:36;10.20;47.60
71733;DHT22;65965;43.502;3.716;2022-12-10T13:47:54;10.80;47.70
71733;DHT22;65965;43.502;3.716;2022-12-10T13:50:48;10.10;49.30
71733;DHT22;65965;43.502;3.716;2022-12-10T13:56:03;9.70;48.80
71733;DHT22;65965;43.502;3.716;2022-12-10T14:06:55;10.50;49.40
71733;DHT22;65965;43.502;3.716;2022-12-10T14:09:27;10.30;49.00
71733;DHT22;65965;43.502;3.716;2022-12-10T14:12:07;10.60;48.90
71733;DHT22;65965;43.502;3.716;2022-12-10T14:14:41;10.40;48.40
71733;DHT22;65965;43.502;3.716;2022-12-10T14:17:24;10.40;50.30
71733;DHT22;65965;43.502;3.716;2022-12-10T14:19:54;9.60;50.80
71733;DHT22;65965;43.502;3.716;2022-12-10T14:22:30;9.70;48.40
71733;DHT22;65965;43.502;3.716;2022-12-10T14:25:03;8.60;52.30
71733;DHT22;65965;43.502;3.716;2022-12-10T14:27:33;7.50;53.10
71733;DHT22;65965;43.502;3.716;2022-12-10T14:32:32;7.60;54.10
71733;DHT22;65965;43.502;3.716;2022-12-10T14:34:59;8.20;52.30
71733;DHT22;65965;43.502;3.716;2022-12-10T14:37:29;8.30;53.40
71733;DHT22;65965;43.502;3.716;2022-12-10T14:39:56;8.10;52.80
71733;DHT22;65965;43.502;3.716;2022-12-10T14:42:22;7.10;54.30
71733;DHT22;65965;43.502;3.716;2022-12-10T14:44:58;7.00;55.00
71733;DHT22;65965;43.502;3.716;2022-12-10T14:47:25;6.90;56.30
71733;DHT22;65965;43.502;3.716;2022-12-10T14:49:55;6.50;58.20
71733;DHT22;65965;43.502;3.716;2022-12-10T14:52:30;6.30;57.70
71733;DHT22;65965;43.502;3.716;2022-12-10T14:54:58;6.30;59.40
71733;DHT22;65965;43.502;3.716;2022-12-10T14:57:33;6.30;56.60
71733;DHT22;65965;43.502;3.716;2022-12-10T15:00:09;6.10;57.10
71733;DHT22;65965;43.502;3.716;2022-12-10T15:02:41;5.90;59.50
71733;DHT22;65965;43.502;3.716;2022-12-10T15:05:23;5.80;58.60
71733;DHT22;65965;43.502;3.716;2022-12-10T15:08:04;5.70;58.60
71733;DHT22;65965;43.502;3.716;2022-12-10T15:10:43;5.80;59.40
71733;DHT22;65965;43.502;3.716;2022-12-10T15:13:33;5.40;59.80
71733;DHT22;65965;43.502;3.716;2022-12-10T15:16:00;5.30;60.80
71733;DHT22;65965;43.502;3.716;2022-12-10T15:18:36;5.30;60.70
71733;DHT22;65965;43.502;3.716;2022-12-10T15:21:13;5.20;61.50
71733;DHT22;65965;43.502;3.716;2022-12-10T15:23:44;5.20;61.70
71733;DHT22;65965;43.502;3.716;2022-12-10T15:26:20;5.20;60.70
71733;DHT22;65965;43.502;3.716;2022-12-10T15:28:48;5.10;61.90
71733;DHT22;65965;43.502;3.716;2022-12-10T15:34:01;4.90;62.70
71733;DHT22;65965;43.502;3.716;2022-12-10T15:36:40;4.90;61.90
71733;DHT22;65965;43.502;3.716;2022-12-10T15:39:16;4.70;63.10
71733;DHT22;65965;43.502;3.716;2022-12-10T15:41:48;4.60;62.70
71733;DHT22;65965;43.502;3.716;2022-12-10T15:44:39;4.60;62.60
71733;DHT22;65965;43.502;3.716;2022-12-10T15:49:41;4.30;63.00
71733;DHT22;65965;43.502;3.716;2022-12-10T15:52:16;4.30;62.00
71733;DHT22;65965;43.502;3.716;2022-12-10T15:54:44;4.20;62.70
71733;DHT22;65965;43.502;3.716;2022-12-10T15:57:22;4.10;64.90
71733;DHT22;65965;43.502;3.716;2022-12-10T15:59:50;4.00;64.80
71733;DHT22;65965;43.502;3.716;2022-12-10T16:04:53;4.00;64.10
71733;DHT22;65965;43.502;3.716;2022-12-10T16:07:19;3.80;65.00
71733;DHT22;65965;43.502;3.716;2022-12-10T16:09:46;3.90;64.70
71733;DHT22;65965;43.502;3.716;2022-12-10T16:12:15;3.80;64.30
71733;DHT22;65965;43.502;3.716;2022-12-10T16:14:53;3.70;66.10
71733;DHT22;65965;43.502;3.716;2022-12-10T16:17:26;3.50;65.10
71733;DHT22;65965;43.502;3.716;2022-12-10T16:19:53;3.40;65.40
71733;DHT22;65965;43.502;3.716;2022-12-10T16:22:21;3.40;66.80
71733;DHT22;65965;43.502;3.716;2022-12-10T16:24:49;3.30;66.40
71733;DHT22;65965;43.502;3.716;2022-12-10T16:27:15;3.30;66.80
71733;DHT22;65965;43.502;3.716;2022-12-10T16:29:42;3.20;66.00
71733;DHT22;65965;43.502;3.716;2022-12-10T16:32:09;3.20;65.90
71733;DHT22;65965;43.502;3.716;2022-12-10T16:34:35;3.10;67.90
71733;DHT22;65965;43.502;3.716;2022-12-10T16:37:00;3.10;67.70
71733;DHT22;65965;43.502;3.716;2022-12-10T16:39:26;3.10;67.30
71733;DHT22;65965;43.502;3.716;2022-12-10T16:41:53;3.00;66.50
71733;DHT22;65965;43.502;3.716;2022-12-10T16:44:19;3.00;66.40
71733;DHT22;65965;43.502;3.716;2022-12-10T16:46:45;3.10;65.90
71733;DHT22;65965;43.502;3.716;2022-12-10T16:49:11;3.00;66.10
71733;DHT22;65965;43.502;3.716;2022-12-10T16:51:37;2.90;67.60
71733;DHT22;65965;43.502;3.716;2022-12-10T16:54:02;2.90;67.10
71733;DHT22;65965;43.502;3.716;2022-12-10T16:56:30;2.90;67.20
71733;DHT22;65965;43.502;3.716;2022-12-10T16:58:56;2.80;68.00
71733;DHT22;65965;43.502;3.716;2022-12-10T17:01:25;2.80;66.60
71733;DHT22;65965;43.502;3.716;2022-12-10T17:03:54;2.80;69.30
71733;DHT22;65965;43.502;3.716;2022-12-10T17:06:20;2.90;66.60
71733;DHT22;65965;43.502;3.716;2022-12-10T17:08:47;2.80;68.30
71733;DHT22;65965;43.502;3.716;2022-12-10T17:11:26;2.60;68.30
71733;DHT22;65965;43.502;3.716;2022-12-10T17:16:53;2.60;69.30
71733;DHT22;65965;43.502;3.716;2022-12-10T17:19:19;2.70;67.00
71733;DHT22;65965;43.502;3.716;2022-12-10T17:21:46;2.80;68.30
71733;DHT22;65965;43.502;3.716;2022-12-10T17:24:11;2.80;67.20
71733;DHT22;65965;43.502;3.716;2022-12-10T17:26:40;2.70;68.10
71733;DHT22;65965;43.502;3.716;2022-12-10T17:31:41;2.60;67.60
71733;DHT22;65965;43.502;3.716;2022-12-10T17:34:07;2.60;69.10
71733;DHT22;65965;43.502;3.716;2022-12-10T17:36:32;2.50;68.20
71733;DHT22;65965;43.502;3.716;2022-12-10T17:38:58;2.50;69.90
71733;DHT22;65965;43.502;3.716;2022-12-10T17:41:24;2.50;68.10
71733;DHT22;65965;43.502;3.716;2022-12-10T17:43:50;2.50;68.00
71733;DHT22;65965;43.502;3.716;2022-12-10T17:46:19;2.50;68.50
71733;DHT22;65965;43.502;3.716;2022-12-10T17:48:45;2.50;67.60
71733;DHT22;65965;43.502;3.716;2022-12-10T17:51:12;2.40;67.60
71733;DHT22;65965;43.502;3.716;2022-12-10T17:53:38;2.30;67.90
71733;DHT22;65965;43.502;3.716;2022-12-10T17:56:10;2.30;69.50
71733;DHT22;65965;43.502;3.716;2022-12-10T17:58:38;2.30;68.00
71733;DHT22;65965;43.502;3.716;2022-12-10T18:01:05;2.30;69.10
71733;DHT22;65965;43.502;3.716;2022-12-10T18:03:31;2.20;69.40
71733;DHT22;65965;43.502;3.716;2022-12-10T18:05:56;2.20;68.80
71733;DHT22;65965;43.502;3.716;2022-12-10T18:08:22;2.10;69.10